A.b. York — WDJ2304 — position and weather

sailwx.info

Track history (hours):
 
Tides and Currents Weather Stations Pressure Air Temp Water Temp Dewpoint Dewpoint Depression Visibility Wind Speed Wind Dir Waves Ship Positions

A.b. York

Owner: Florida Marine, LLC, Mandeville, LA. More information available from US FCC via Universal Licensing System and Coast Guard Vessel Documentation Center.

Last reported at 2018-Feb-19 00:28 UTC. Time now 2018-Feb-19 05:59 UTC.
Position N 28°36' W 096°10'.

Length 37 m; draft 3 m.

Type: Other ship. MMSI: 367757130.

Date/timePositionNaut miles runAvg speedWind from/ knotsBaromVisibWave heightAir tempDewpointWater temp
2018-Feb-19 00:28N 28°36' W 096°10'3 5.7
2018-Feb-18 23:58N 28°34' W 096°12'3 6.3
2018-Feb-18 23:28N 28°32' W 096°15'8 6.1
2018-Feb-18 22:07N 28°28' W 096°23'26 2.0
2018-Feb-18 08:48N 28°13' W 096°48'0 0.0
2018-Feb-18 08:15N 28°13' W 096°48'0 0.0
2018-Feb-18 07:45N 28°13' W 096°48'0 0.0
2018-Feb-18 07:30N 28°13' W 096°48'0 0.0
2018-Feb-18 06:10N 28°13' W 096°48'0 0.0
2018-Feb-18 04:08N 28°13' W 096°48'0 0.0
2018-Feb-18 03:50N 28°13' W 096°48'0 0.0
2018-Feb-18 03:30N 28°13' W 096°48'0 0.0
2018-Feb-18 02:59N 28°13' W 096°48'0 0.0
2018-Feb-18 02:27N 28°13' W 096°48'0 0.0
2018-Feb-18 01:59N 28°13' W 096°48'0 0.0
2018-Feb-18 01:29N 28°13' W 096°48'1 0.7
2018-Feb-18 00:07N 28°13' W 096°49'7 4.6
2018-Feb-17 22:37N 28°08' W 096°55'1 4.7
2018-Feb-17 22:26N 28°07' W 096°55'3 5.3
2018-Feb-17 21:54N 28°05' W 096°57'2 5.9
2018-Feb-17 21:29N 28°03' W 096°59'3 6.0
2018-Feb-17 20:58N 28°01' W 097°01'3 5.9
2018-Feb-17 20:29N 27°59' W 097°03'2 4.7
2018-Feb-17 19:59N 27°56' W 097°04'4 5.7
2018-Feb-17 19:19N 27°52' W 097°03'1 4.4
2018-Feb-17 19:00N 27°51' W 097°03'4 6.9
2018-Feb-17 18:28N 27°50' W 097°07'4 8.3
2018-Feb-17 17:59N 27°49' W 097°12'1 1.1
2018-Feb-17 17:26N 27°49' W 097°12'1 1.8
2018-Feb-17 16:59N 27°49' W 097°13'10 6.5
2018-Feb-17 15:28N 27°49' W 097°25'0 0.1
2018-Feb-17 14:30N 27°49' W 097°25'0 0.0
2018-Feb-16 03:03N 27°49' W 097°25'0 0.0
2018-Feb-16 02:59N 27°49' W 097°25'0 0.0
2018-Feb-16 02:25N 27°49' W 097°25'0 0.0
2018-Feb-16 00:42N 27°49' W 097°25'0 0.0
2018-Feb-16 00:30N 27°49' W 097°25'1 1.5
2018-Feb-15 23:56N 27°49' W 097°24'4 9.1
2018-Feb-15 23:30N 27°49' W 097°19'5 9.9
2018-Feb-15 22:59N 27°49' W 097°14'510.4
2018-Feb-15 22:30N 27°50' W 097°08'4 8.1
2018-Feb-15 21:58N 27°51' W 097°03'1 3.1
2018-Feb-15 21:30N 27°52' W 097°03'0 0.0
2018-Feb-15 20:59N 27°52' W 097°03'0 0.0
2018-Feb-15 20:27N 27°52' W 097°03'0 0.0
2018-Feb-15 20:00N 27°52' W 097°03'0 0.0
2018-Feb-15 19:29N 27°52' W 097°03'0 0.0
2018-Feb-15 19:00N 27°52' W 097°03'0 0.0
2018-Feb-15 18:13N 27°52' W 097°03'0 0.0
2018-Feb-15 17:53N 27°52' W 097°03'0 0.0
2018-Feb-15 17:30N 27°52' W 097°03'0 0.0
2018-Feb-15 16:59N 27°52' W 097°03'0 0.0
2018-Feb-15 16:29N 27°52' W 097°03'0 0.0
2018-Feb-15 16:00N 27°52' W 097°03'0 0.0
2018-Feb-15 15:30N 27°52' W 097°03'0 0.0
2018-Feb-15 14:59N 27°52' W 097°03'2 3.5
2018-Feb-15 14:30N 27°51' W 097°04'2 3.4
2018-Feb-15 14:00N 27°52' W 097°03'0 0.0
2018-Feb-15 13:30N 27°52' W 097°03'0 0.0
2018-Feb-15 13:00N 27°52' W 097°03'0 0.0
2018-Feb-15 12:26N 27°52' W 097°03'0 0.0
2018-Feb-15 11:59N 27°52' W 097°03'0 0.0
2018-Feb-15 11:29N 27°52' W 097°03'0 0.0
2018-Feb-15 10:57N 27°52' W 097°03'0 0.0
2018-Feb-15 10:23N 27°52' W 097°03'0 0.0
2018-Feb-15 09:57N 27°52' W 097°03'0 0.0
2018-Feb-15 09:28N 27°52' W 097°03'0 0.0
2018-Feb-15 08:59N 27°52' W 097°03'0 0.0
2018-Feb-15 08:14N 27°52' W 097°03'0 0.0
2018-Feb-15 07:59N 27°52' W 097°03'0 0.0
2018-Feb-15 07:29N 27°52' W 097°03'0 0.0
2018-Feb-15 07:00N 27°52' W 097°03'0 0.0
2018-Feb-15 06:30N 27°52' W 097°03'0 0.0
2018-Feb-15 05:59N 27°52' W 097°03'0 0.0
2018-Feb-15 05:28N 27°52' W 097°03'0 0.0
2018-Feb-15 05:00N 27°52' W 097°03'0 0.0
2018-Feb-15 04:29N 27°52' W 097°03'0 0.0
2018-Feb-15 04:00N 27°52' W 097°03'0 0.0
2018-Feb-15 03:30N 27°52' W 097°03'0 0.0
2018-Feb-15 02:59N 27°52' W 097°03'0 0.0
2018-Feb-15 02:29N 27°52' W 097°03'0 0.0
2018-Feb-15 02:00N 27°52' W 097°03'0 0.0
2018-Feb-15 01:29N 27°52' W 097°03'0 0.0
2018-Feb-15 00:58N 27°52' W 097°03'0 0.0
2018-Feb-15 00:28N 27°52' W 097°03'0 0.0
2018-Feb-14 23:59N 27°52' W 097°03'0 0.0
2018-Feb-14 23:30N 27°52' W 097°03'0 0.0
2018-Feb-14 22:59N 27°52' W 097°03'0 0.0
2018-Feb-14 22:29N 27°52' W 097°03'3 4.8
2018-Feb-14 21:58N 27°50' W 097°05'2 3.7
2018-Feb-14 21:29N 27°52' W 097°03'3 5.4
2018-Feb-14 21:00N 27°54' W 097°03'3 5.4
2018-Feb-14 20:27N 27°57' W 097°03'2 4.9
2018-Feb-14 19:59N 27°59' W 097°02'3 6.2
2018-Feb-14 19:29N 28°02' W 097°00'3 6.1
2018-Feb-14 19:00N 28°04' W 096°58'3 5.9
2018-Feb-14 18:29N 28°06' W 096°56'2 4.6
2018-Feb-14 18:00N 28°08' W 096°55'0 0.0
2018-Feb-14 17:30N 28°08' W 096°55'0 0.0
2018-Feb-14 16:57N 28°08' W 096°55'0 0.0
2018-Feb-14 16:29N 28°08' W 096°55'0 0.0
2018-Feb-14 15:59N 28°08' W 096°55'0 0.0
2018-Feb-14 15:29N 28°08' W 096°55'0 0.0
2018-Feb-14 14:55N 28°08' W 096°55'0 0.0
2018-Feb-14 14:29N 28°08' W 096°55'0 0.0
2018-Feb-14 13:58N 28°08' W 096°55'0 0.0
2018-Feb-14 13:29N 28°08' W 096°55'0 0.0
2018-Feb-14 10:30N 28°08' W 096°55'0 0.0
2018-Feb-14 10:00N 28°08' W 096°55'0 0.0
2018-Feb-14 09:30N 28°08' W 096°55'0 0.0
2018-Feb-14 08:57N 28°08' W 096°54'0 0.0
2018-Feb-14 08:29N 28°08' W 096°54'0 0.0
2018-Feb-14 08:00N 28°08' W 096°54'0 0.0
2018-Feb-14 07:30N 28°08' W 096°54'0 0.0
2018-Feb-14 06:57N 28°08' W 096°54'0 0.0
2018-Feb-14 06:28N 28°08' W 096°54'0 0.0
2018-Feb-14 06:00N 28°08' W 096°54'0 0.0
2018-Feb-14 05:29N 28°08' W 096°54'0 0.0
2018-Feb-14 04:59N 28°08' W 096°54'0 0.0
2018-Feb-14 04:29N 28°08' W 096°54'0 0.0
2018-Feb-14 04:00N 28°08' W 096°54'0 0.1
2018-Feb-14 03:30N 28°08' W 096°55'1 2.2
2018-Feb-14 02:59N 28°09' W 096°54'2 5.1
2018-Feb-14 02:30N 28°11' W 096°52'3 5.3
2018-Feb-14 02:00N 28°12' W 096°49'136 2.8
2018-Feb-12 00:56N 29°28' W 094°39'12 4.7
2018-Feb-11 22:30N 29°33' W 094°28'3 5.7
2018-Feb-11 21:57N 29°35' W 094°25'3 2.7
2018-Feb-11 20:48N 29°36' W 094°22'4 6.2
2018-Feb-11 20:08N 29°38' W 094°17'1 6.2
2018-Feb-11 20:00N 29°39' W 094°17'3 6.3
2018-Feb-11 19:30N 29°40' W 094°13'3 6.0
2018-Feb-11 19:00N 29°41' W 094°10'3 5.8
2018-Feb-11 18:30N 29°43' W 094°07'3 5.9
2018-Feb-11 18:00N 29°45' W 094°05'3 5.9
2018-Feb-11 17:29N 29°47' W 094°02'3 6.1
2018-Feb-11 17:00N 29°49' W 093°60'1 2.3
2018-Feb-11 16:30N 29°49' W 093°59'0 0.0
2018-Feb-11 16:00N 29°49' W 093°59'0 0.0
2018-Feb-11 15:30N 29°49' W 093°59'1 1.3
2018-Feb-11 15:00N 29°49' W 093°58'3 6.5
2018-Feb-11 14:30N 29°52' W 093°56'4 8.0
2018-Feb-11 14:00N 29°55' W 093°53'3 5.3
2018-Feb-11 13:31N 29°58' W 093°51'0 0.1
2018-Feb-11 13:00N 29°58' W 093°52'0 0.0
2018-Feb-11 12:30N 29°58' W 093°52'0 0.0
2018-Feb-11 12:00N 29°58' W 093°52'0 0.0
2018-Feb-11 11:30N 29°58' W 093°52'0 0.0
2018-Feb-11 11:00N 29°58' W 093°52'0 0.0
2018-Feb-11 10:30N 29°58' W 093°52'0 0.0
2018-Feb-11 10:00N 29°58' W 093°52'0 0.0
2018-Feb-11 09:29N 29°58' W 093°52'0 0.0
2018-Feb-11 09:00N 29°58' W 093°52'0 0.0
2018-Feb-11 08:30N 29°58' W 093°52'0 0.0
2018-Feb-11 08:00N 29°58' W 093°52'0 0.0
2018-Feb-11 07:30N 29°58' W 093°52'0 0.0
2018-Feb-11 07:00N 29°58' W 093°52'0 0.0
2018-Feb-11 06:30N 29°58' W 093°52'0 0.0
2018-Feb-11 06:00N 29°58' W 093°52'0 0.0
2018-Feb-11 05:29N 29°58' W 093°52'0 0.0
2018-Feb-11 05:00N 29°58' W 093°52'0 0.0
2018-Feb-11 04:30N 29°58' W 093°52'0 0.0
2018-Feb-11 04:00N 29°58' W 093°52'0 0.0
2018-Feb-11 03:30N 29°58' W 093°52'0 0.0
2018-Feb-11 03:00N 29°58' W 093°52'0 0.0
2018-Feb-11 02:30N 29°58' W 093°52'0 0.0
2018-Feb-11 02:00N 29°58' W 093°52'0 0.0
2018-Feb-11 01:30N 29°58' W 093°52'0 0.1
2018-Feb-11 00:58N 29°58' W 093°52'0 0.1
2018-Feb-11 00:30N 29°58' W 093°52'1 2.6
2018-Feb-11 00:00N 29°56' W 093°52'0 0.0
2018-Feb-10 23:30N 29°56' W 093°52'0 0.0
2018-Feb-10 23:00N 29°56' W 093°52'0 0.1
2018-Feb-10 22:30N 29°56' W 093°52'2 4.0
2018-Feb-10 22:00N 29°58' W 093°51'3 6.3
2018-Feb-10 21:30N 29°59' W 093°48'3 6.1
2018-Feb-10 21:00N 30°01' W 093°45'3 5.8
2018-Feb-10 20:30N 30°03' W 093°43'3 5.9
2018-Feb-10 20:00N 30°04' W 093°39'3 5.9
2018-Feb-10 19:30N 30°04' W 093°36'3 5.5
2018-Feb-10 19:00N 30°04' W 093°33'3 5.4
2018-Feb-10 18:30N 30°04' W 093°30'2 4.8
2018-Feb-10 18:00N 30°04' W 093°27'3 5.6
2018-Feb-10 17:30N 30°04' W 093°24'2 4.3
2018-Feb-10 17:00N 30°04' W 093°21'2 3.5
2018-Feb-10 16:30N 30°05' W 093°20'2 3.6
2018-Feb-10 16:00N 30°07' W 093°20'3 5.4
2018-Feb-10 15:30N 30°09' W 093°20'0 0.3
2018-Feb-10 15:00N 30°10' W 093°19'0 0.0
2018-Feb-10 14:30N 30°10' W 093°19'0 0.0
2018-Feb-10 14:00N 30°10' W 093°19'0 0.0
2018-Feb-10 13:30N 30°10' W 093°19'0 0.0
2018-Feb-10 13:00N 30°10' W 093°19'0 0.0
2018-Feb-10 12:29N 30°10' W 093°19'0 0.0
2018-Feb-10 12:00N 30°10' W 093°19'0 0.0
2018-Feb-10 11:30N 30°10' W 093°19'0 0.0
2018-Feb-10 11:00N 30°10' W 093°19'0 0.0
2018-Feb-10 10:30N 30°10' W 093°19'0 0.0
2018-Feb-10 10:00N 30°10' W 093°19'0 0.0
2018-Feb-10 09:30N 30°10' W 093°19'0 0.0
2018-Feb-10 09:00N 30°10' W 093°19'0 0.0
2018-Feb-10 08:30N 30°10' W 093°19'0 0.0
2018-Feb-10 08:00N 30°10' W 093°19'0 0.0
2018-Feb-10 07:30N 30°10' W 093°19'0 0.0
2018-Feb-10 07:00N 30°10' W 093°19'0 0.0
2018-Feb-10 06:29N 30°10' W 093°19'0 0.0
2018-Feb-10 06:00N 30°10' W 093°19'0 0.0
2018-Feb-10 05:30N 30°10' W 093°19'0 0.0
2018-Feb-10 05:00N 30°10' W 093°19'0 0.0
2018-Feb-10 04:30N 30°10' W 093°19'0 0.0
2018-Feb-10 04:00N 30°10' W 093°19'0 0.0
2018-Feb-10 03:30N 30°10' W 093°19'0 0.0
2018-Feb-10 03:00N 30°10' W 093°19'0 0.0
2018-Feb-10 02:30N 30°10' W 093°19'0 0.0
2018-Feb-10 01:58N 30°10' W 093°19'0 0.0
2018-Feb-10 01:30N 30°10' W 093°19'0 0.0
2018-Feb-10 01:00N 30°10' W 093°19'  
Track history (hours):
 
Tides and Currents Weather Stations Pressure Air Temp Water Temp Dewpoint Dewpoint Depression Visibility Wind Speed Wind Dir Waves Ship Positions

A.b. York

Owner: Florida Marine, LLC, Mandeville, LA. More information available from US FCC via Universal Licensing System and Coast Guard Vessel Documentation Center.

Last reported at 2018-Feb-19 00:28 UTC. Time now 2018-Feb-19 05:59 UTC.
Position N 28°36' W 096°10'.

Length 37 m; draft 3 m.

Type: Other ship. MMSI: 367757130.

Date/timePositionNaut miles runAvg speedWind from/ knotsBaromVisibWave heightAir tempDewpointWater temp
2018-Feb-19 00:28N 28°36' W 096°10'3 5.7
2018-Feb-18 23:58N 28°34' W 096°12'3 6.3
2018-Feb-18 23:28N 28°32' W 096°15'8 6.1
2018-Feb-18 22:07N 28°28' W 096°23'26 2.0
2018-Feb-18 08:48N 28°13' W 096°48'0 0.0
2018-Feb-18 08:15N 28°13' W 096°48'0 0.0
2018-Feb-18 07:45N 28°13' W 096°48'0 0.0
2018-Feb-18 07:30N 28°13' W 096°48'0 0.0
2018-Feb-18 06:10N 28°13' W 096°48'0 0.0
2018-Feb-18 04:08N 28°13' W 096°48'0 0.0
2018-Feb-18 03:50N 28°13' W 096°48'0 0.0
2018-Feb-18 03:30N 28°13' W 096°48'0 0.0
2018-Feb-18 02:59N 28°13' W 096°48'0 0.0
2018-Feb-18 02:27N 28°13' W 096°48'0 0.0
2018-Feb-18 01:59N 28°13' W 096°48'0 0.0
2018-Feb-18 01:29N 28°13' W 096°48'1 0.7
2018-Feb-18 00:07N 28°13' W 096°49'7 4.6
2018-Feb-17 22:37N 28°08' W 096°55'1 4.7
2018-Feb-17 22:26N 28°07' W 096°55'3 5.3
2018-Feb-17 21:54N 28°05' W 096°57'2 5.9
2018-Feb-17 21:29N 28°03' W 096°59'3 6.0
2018-Feb-17 20:58N 28°01' W 097°01'3 5.9
2018-Feb-17 20:29N 27°59' W 097°03'2 4.7
2018-Feb-17 19:59N 27°56' W 097°04'4 5.7
2018-Feb-17 19:19N 27°52' W 097°03'1 4.4
2018-Feb-17 19:00N 27°51' W 097°03'4 6.9
2018-Feb-17 18:28N 27°50' W 097°07'4 8.3
2018-Feb-17 17:59N 27°49' W 097°12'1 1.1
2018-Feb-17 17:26N 27°49' W 097°12'1 1.8
2018-Feb-17 16:59N 27°49' W 097°13'10 6.5
2018-Feb-17 15:28N 27°49' W 097°25'0 0.1
2018-Feb-17 14:30N 27°49' W 097°25'0 0.0
2018-Feb-16 03:03N 27°49' W 097°25'0 0.0
2018-Feb-16 02:59N 27°49' W 097°25'0 0.0
2018-Feb-16 02:25N 27°49' W 097°25'0 0.0
2018-Feb-16 00:42N 27°49' W 097°25'0 0.0
2018-Feb-16 00:30N 27°49' W 097°25'1 1.5
2018-Feb-15 23:56N 27°49' W 097°24'4 9.1
2018-Feb-15 23:30N 27°49' W 097°19'5 9.9
2018-Feb-15 22:59N 27°49' W 097°14'510.4
2018-Feb-15 22:30N 27°50' W 097°08'4 8.1
2018-Feb-15 21:58N 27°51' W 097°03'1 3.1
2018-Feb-15 21:30N 27°52' W 097°03'0 0.0
2018-Feb-15 20:59N 27°52' W 097°03'0 0.0
2018-Feb-15 20:27N 27°52' W 097°03'0 0.0
2018-Feb-15 20:00N 27°52' W 097°03'0 0.0
2018-Feb-15 19:29N 27°52' W 097°03'0 0.0
2018-Feb-15 19:00N 27°52' W 097°03'0 0.0
2018-Feb-15 18:13N 27°52' W 097°03'0 0.0
2018-Feb-15 17:53N 27°52' W 097°03'0 0.0
2018-Feb-15 17:30N 27°52' W 097°03'0 0.0
2018-Feb-15 16:59N 27°52' W 097°03'0 0.0
2018-Feb-15 16:29N 27°52' W 097°03'0 0.0
2018-Feb-15 16:00N 27°52' W 097°03'0 0.0
2018-Feb-15 15:30N 27°52' W 097°03'0 0.0
2018-Feb-15 14:59N 27°52' W 097°03'2 3.5
2018-Feb-15 14:30N 27°51' W 097°04'2 3.4
2018-Feb-15 14:00N 27°52' W 097°03'0 0.0
2018-Feb-15 13:30N 27°52' W 097°03'0 0.0
2018-Feb-15 13:00N 27°52' W 097°03'0 0.0
2018-Feb-15 12:26N 27°52' W 097°03'0 0.0
2018-Feb-15 11:59N 27°52' W 097°03'0 0.0
2018-Feb-15 11:29N 27°52' W 097°03'0 0.0
2018-Feb-15 10:57N 27°52' W 097°03'0 0.0
2018-Feb-15 10:23N 27°52' W 097°03'0 0.0
2018-Feb-15 09:57N 27°52' W 097°03'0 0.0
2018-Feb-15 09:28N 27°52' W 097°03'0 0.0
2018-Feb-15 08:59N 27°52' W 097°03'0 0.0
2018-Feb-15 08:14N 27°52' W 097°03'0 0.0
2018-Feb-15 07:59N 27°52' W 097°03'0 0.0
2018-Feb-15 07:29N 27°52' W 097°03'0 0.0
2018-Feb-15 07:00N 27°52' W 097°03'0 0.0
2018-Feb-15 06:30N 27°52' W 097°03'0 0.0
2018-Feb-15 05:59N 27°52' W 097°03'0 0.0
2018-Feb-15 05:28N 27°52' W 097°03'0 0.0
2018-Feb-15 05:00N 27°52' W 097°03'0 0.0
2018-Feb-15 04:29N 27°52' W 097°03'0 0.0
2018-Feb-15 04:00N 27°52' W 097°03'0 0.0
2018-Feb-15 03:30N 27°52' W 097°03'0 0.0
2018-Feb-15 02:59N 27°52' W 097°03'0 0.0
2018-Feb-15 02:29N 27°52' W 097°03'0 0.0
2018-Feb-15 02:00N 27°52' W 097°03'0 0.0
2018-Feb-15 01:29N 27°52' W 097°03'0 0.0
2018-Feb-15 00:58N 27°52' W 097°03'0 0.0
2018-Feb-15 00:28N 27°52' W 097°03'0 0.0
2018-Feb-14 23:59N 27°52' W 097°03'0 0.0
2018-Feb-14 23:30N 27°52' W 097°03'0 0.0
2018-Feb-14 22:59N 27°52' W 097°03'0 0.0
2018-Feb-14 22:29N 27°52' W 097°03'3 4.8
2018-Feb-14 21:58N 27°50' W 097°05'2 3.7
2018-Feb-14 21:29N 27°52' W 097°03'3 5.4
2018-Feb-14 21:00N 27°54' W 097°03'3 5.4
2018-Feb-14 20:27N 27°57' W 097°03'2 4.9
2018-Feb-14 19:59N 27°59' W 097°02'3 6.2
2018-Feb-14 19:29N 28°02' W 097°00'3 6.1
2018-Feb-14 19:00N 28°04' W 096°58'3 5.9
2018-Feb-14 18:29N 28°06' W 096°56'2 4.6
2018-Feb-14 18:00N 28°08' W 096°55'0 0.0
2018-Feb-14 17:30N 28°08' W 096°55'0 0.0
2018-Feb-14 16:57N 28°08' W 096°55'0 0.0
2018-Feb-14 16:29N 28°08' W 096°55'0 0.0
2018-Feb-14 15:59N 28°08' W 096°55'0 0.0
2018-Feb-14 15:29N 28°08' W 096°55'0 0.0
2018-Feb-14 14:55N 28°08' W 096°55'0 0.0
2018-Feb-14 14:29N 28°08' W 096°55'0 0.0
2018-Feb-14 13:58N 28°08' W 096°55'0 0.0
2018-Feb-14 13:29N 28°08' W 096°55'0 0.0
2018-Feb-14 10:30N 28°08' W 096°55'0 0.0
2018-Feb-14 10:00N 28°08' W 096°55'0 0.0
2018-Feb-14 09:30N 28°08' W 096°55'0 0.0
2018-Feb-14 08:57N 28°08' W 096°54'0 0.0
2018-Feb-14 08:29N 28°08' W 096°54'0 0.0
2018-Feb-14 08:00N 28°08' W 096°54'0 0.0
2018-Feb-14 07:30N 28°08' W 096°54'0 0.0
2018-Feb-14 06:57N 28°08' W 096°54'0 0.0
2018-Feb-14 06:28N 28°08' W 096°54'0 0.0
2018-Feb-14 06:00N 28°08' W 096°54'0 0.0
2018-Feb-14 05:29N 28°08' W 096°54'0 0.0
2018-Feb-14 04:59N 28°08' W 096°54'0 0.0
2018-Feb-14 04:29N 28°08' W 096°54'0 0.0
2018-Feb-14 04:00N 28°08' W 096°54'0 0.1
2018-Feb-14 03:30N 28°08' W 096°55'1 2.2
2018-Feb-14 02:59N 28°09' W 096°54'2 5.1
2018-Feb-14 02:30N 28°11' W 096°52'3 5.3
2018-Feb-14 02:00N 28°12' W 096°49'136 2.8
2018-Feb-12 00:56N 29°28' W 094°39'12 4.7
2018-Feb-11 22:30N 29°33' W 094°28'3 5.7
2018-Feb-11 21:57N 29°35' W 094°25'3 2.7
2018-Feb-11 20:48N 29°36' W 094°22'4 6.2
2018-Feb-11 20:08N 29°38' W 094°17'1 6.2
2018-Feb-11 20:00N 29°39' W 094°17'3 6.3
2018-Feb-11 19:30N 29°40' W 094°13'3 6.0
2018-Feb-11 19:00N 29°41' W 094°10'3 5.8
2018-Feb-11 18:30N 29°43' W 094°07'3 5.9
2018-Feb-11 18:00N 29°45' W 094°05'3 5.9
2018-Feb-11 17:29N 29°47' W 094°02'3 6.1
2018-Feb-11 17:00N 29°49' W 093°60'1 2.3
2018-Feb-11 16:30N 29°49' W 093°59'0 0.0
2018-Feb-11 16:00N 29°49' W 093°59'0 0.0
2018-Feb-11 15:30N 29°49' W 093°59'1 1.3
2018-Feb-11 15:00N 29°49' W 093°58'3 6.5
2018-Feb-11 14:30N 29°52' W 093°56'4 8.0
2018-Feb-11 14:00N 29°55' W 093°53'3 5.3
2018-Feb-11 13:31N 29°58' W 093°51'0 0.1
2018-Feb-11 13:00N 29°58' W 093°52'0 0.0
2018-Feb-11 12:30N 29°58' W 093°52'0 0.0
2018-Feb-11 12:00N 29°58' W 093°52'0 0.0
2018-Feb-11 11:30N 29°58' W 093°52'0 0.0
2018-Feb-11 11:00N 29°58' W 093°52'0 0.0
2018-Feb-11 10:30N 29°58' W 093°52'0 0.0
2018-Feb-11 10:00N 29°58' W 093°52'0 0.0
2018-Feb-11 09:29N 29°58' W 093°52'0 0.0
2018-Feb-11 09:00N 29°58' W 093°52'0 0.0
2018-Feb-11 08:30N 29°58' W 093°52'0 0.0
2018-Feb-11 08:00N 29°58' W 093°52'0 0.0
2018-Feb-11 07:30N 29°58' W 093°52'0 0.0
2018-Feb-11 07:00N 29°58' W 093°52'0 0.0
2018-Feb-11 06:30N 29°58' W 093°52'0 0.0
2018-Feb-11 06:00N 29°58' W 093°52'0 0.0
2018-Feb-11 05:29N 29°58' W 093°52'0 0.0
2018-Feb-11 05:00N 29°58' W 093°52'0 0.0
2018-Feb-11 04:30N 29°58' W 093°52'0 0.0
2018-Feb-11 04:00N 29°58' W 093°52'0 0.0
2018-Feb-11 03:30N 29°58' W 093°52'0 0.0
2018-Feb-11 03:00N 29°58' W 093°52'0 0.0
2018-Feb-11 02:30N 29°58' W 093°52'0 0.0
2018-Feb-11 02:00N 29°58' W 093°52'0 0.0
2018-Feb-11 01:30N 29°58' W 093°52'0 0.1
2018-Feb-11 00:58N 29°58' W 093°52'0 0.1
2018-Feb-11 00:30N 29°58' W 093°52'1 2.6
2018-Feb-11 00:00N 29°56' W 093°52'0 0.0
2018-Feb-10 23:30N 29°56' W 093°52'0 0.0
2018-Feb-10 23:00N 29°56' W 093°52'0 0.1
2018-Feb-10 22:30N 29°56' W 093°52'2 4.0
2018-Feb-10 22:00N 29°58' W 093°51'3 6.3
2018-Feb-10 21:30N 29°59' W 093°48'3 6.1
2018-Feb-10 21:00N 30°01' W 093°45'3 5.8
2018-Feb-10 20:30N 30°03' W 093°43'3 5.9
2018-Feb-10 20:00N 30°04' W 093°39'3 5.9
2018-Feb-10 19:30N 30°04' W 093°36'3 5.5
2018-Feb-10 19:00N 30°04' W 093°33'3 5.4
2018-Feb-10 18:30N 30°04' W 093°30'2 4.8
2018-Feb-10 18:00N 30°04' W 093°27'3 5.6
2018-Feb-10 17:30N 30°04' W 093°24'2 4.3
2018-Feb-10 17:00N 30°04' W 093°21'2 3.5
2018-Feb-10 16:30N 30°05' W 093°20'2 3.6
2018-Feb-10 16:00N 30°07' W 093°20'3 5.4
2018-Feb-10 15:30N 30°09' W 093°20'0 0.3
2018-Feb-10 15:00N 30°10' W 093°19'0 0.0
2018-Feb-10 14:30N 30°10' W 093°19'0 0.0
2018-Feb-10 14:00N 30°10' W 093°19'0 0.0
2018-Feb-10 13:30N 30°10' W 093°19'0 0.0
2018-Feb-10 13:00N 30°10' W 093°19'0 0.0
2018-Feb-10 12:29N 30°10' W 093°19'0 0.0
2018-Feb-10 12:00N 30°10' W 093°19'0 0.0
2018-Feb-10 11:30N 30°10' W 093°19'0 0.0
2018-Feb-10 11:00N 30°10' W 093°19'0 0.0
2018-Feb-10 10:30N 30°10' W 093°19'0 0.0
2018-Feb-10 10:00N 30°10' W 093°19'0 0.0
2018-Feb-10 09:30N 30°10' W 093°19'0 0.0
2018-Feb-10 09:00N 30°10' W 093°19'0 0.0
2018-Feb-10 08:30N 30°10' W 093°19'0 0.0
2018-Feb-10 08:00N 30°10' W 093°19'0 0.0
2018-Feb-10 07:30N 30°10' W 093°19'0 0.0
2018-Feb-10 07:00N 30°10' W 093°19'0 0.0
2018-Feb-10 06:29N 30°10' W 093°19'0 0.0
2018-Feb-10 06:00N 30°10' W 093°19'0 0.0
2018-Feb-10 05:30N 30°10' W 093°19'0 0.0
2018-Feb-10 05:00N 30°10' W 093°19'0 0.0
2018-Feb-10 04:30N 30°10' W 093°19'0 0.0
2018-Feb-10 04:00N 30°10' W 093°19'0 0.0
2018-Feb-10 03:30N 30°10' W 093°19'0 0.0
2018-Feb-10 03:00N 30°10' W 093°19'0 0.0
2018-Feb-10 02:30N 30°10' W 093°19'0 0.0
2018-Feb-10 01:58N 30°10' W 093°19'0 0.0
2018-Feb-10 01:30N 30°10' W 093°19'0 0.0
2018-Feb-10 01:00N 30°10' W 093°19'  

Dump ship's entire track history